Thursday, February 11, 2016
10:54 UTC
  |  Log In   |  Register Free
Airport Search:

La Porte Municipal Airport
(T41)

La Porte Municipal Airport Diagram
No Airport Diagram Available

FAA data valid effective Feb 4 2016 - Mar 31 2016 (unless otherwise noted).

 
 
 
 
 
 
 
 
 
 
 
 
 
 
Current Aviation Weather for T41

Weather Summary


Current weather conditions are not available for T41 - The nearest NOAA weather station is at EFD, (6.2 nm SW from T41)

The most recent METAR observation for T41 was updated at: 12:50 UTC
METAR for T41 is not available. Closest METAR is for KHOU 11.3 nm NE
KHOU  (11.3 nm NE)   (most recent observation was updated at 11:09 UTC)
110953Z 21007KT 10SM CLR 13/11 A3017 RMK AO2 SLP220 T01280106

KLVJ  (12.9 nm NE)   (most recent observation was updated at 11:09 UTC)
110953Z AUTO 23004KT 10SM CLR 12/11 A3019 RMK AO2 SLP223 T01220106

TAF for T41 is not available.
KEFD  (6.2 nm NE)   (most recent observation was updatred at 11:04 UTC)
110400Z 1104/1210 18006KT 9999 SKC WS020/24040KT QNH3020INS BECMG 1114/1115 24012G18KT 9999 SKC QNH3018INS BECMG 1123/1124 21009KT 9999 SKC QNH3016INS TX24/1121Z TN08/1112Z


KHOU  (11.3 nm NE)   (most recent observation was updatred at 11:08 UTC)
AMD 110856Z 1109/1206 21007KT P6SM SKC FM111700 22014KT P6SM SKC FM120100 19005KT P6SM FEW300


KIAH  (23.8 nm SE)   (most recent observation was updatred at 11:08 UTC)
AMD 110856Z 1109/1212 22010KT P6SM SKC FM111700 22012KT P6SM SKC FM120100 19005KT P6SM FEW300 FM120900 VRB03KT 6SM BR FEW007
GlobalAir.com is loading additional information.
 Current Weather at EFD
55.0 F° (13.0 C°)

Southwest winds at 8.1 mph
Pressure:
30.19 in
Humidity:
77%
Wind:
Southwest at 8.1 mph
Dew Point:
48.2 F° (9.0 C°)
Visibility:
10.00 mi
T41 NOAA Radar




Find All Airport Services Find A Hotel Find A Rental Car Find A Golf Course Find A Restaurant $100 Hamburger



Airport Weather Forecast for T41

Translated METAR for KHOU (0953 UTC)
METAR:
KHOU 110953Z 21007KT 10SM CLR 13/11 A3017 RMK AO2 SLP220 T01280106
Conditions at:
KHOU (William P Hobby, TX) observed 0953 UTC 11 February 2016
Temperature:
13°C (55.4°F)
Dewpoint:
11°C (51.8°F) [RH = 87.7]
Pressure:
30.17 inches Hg (1021.7 mb)
pressure at sea level is 220 in Hg
Winds:
from the SSW (210 degrees) at 8.1 mph (7 knots: 3.6 m/s)
Visibility:
10 mile(s)
Ceiling:
at least 12,000 feet AGL
Clouds:
Clear below 12,000 feet AGL
Remarks:
site is automated and HAS a precipitation sensor

Translated TAF for KEFD (Ellington, TX) (0400 UTC)
TAF text:
KEFD 110400Z 1104/1210 18006KT 9999 SKC WS020/24040KT QNH3020INS BECMG 1114/1115 24012G18KT 9999 SKC QNH3018INS BECMG 1123/1124 21009KT 9999 SKC QNH3016INS TX24/1121Z TN08/1112Z
Forecast period:
Thursday Feb 11 2016 04:00 UTC - Friday Feb 12 2016 10:00 UTC
Forecast type:
FROM: standard forecast or significant change
Winds:
from the SSW (210 degrees) at 10.4 mph (9 knots: 4.6 m/s)
Visibility:
Ceiling:
at least 12,000 feet AGL
at least 12,000 feet AGL
at least 12,000 feet AGL
Clouds:
Clear Skies
Clear Skies
Clear Skies
Weather:
no significant weather observed at this time
FBO's on the Field
FBO Company Facility Photos Services Transportation Aviation Fuel Prices: Prices include tax
Catering Weather Repair Courtesy Rental Type 100LL JetA JetA+ MOGAS 8087
 
Harvey & Rihn Aviation

This FBO has not yet been rated
FS:Independent
Last Updated: Jan-04
Login to update fuel prices
SS:
Contact Harvey & Rihn AviationMore FBO Information
 
Tri-Star Aviation

This FBO has not yet been rated
FS:Avfuel
Last Updated: Jan-29
Login to update fuel prices
SS:
Contact Tri-Star AviationMore FBO Information
 
Add another FBO Facility Photos Catering Weather Repair Courtesy Rental Type 100LL JetA JetA+ MOGAS 8087
Services Transportation Aviation Fuel Prices: Prices include tax


model-print
model-print
model-print
model-print